createdAt,value
2023-08-08T00:02:07.287Z,12.10
2023-08-08T00:06:06.886Z,12.00
2023-08-08T00:08:33.637Z,12.10
2023-08-08T00:11:00.408Z,12.00
2023-08-08T00:15:29.076Z,12.00
2023-08-08T00:17:55.866Z,12.00
2023-08-08T00:22:04.917Z,11.90
2023-08-08T00:24:31.691Z,12.00
2023-08-08T00:26:58.474Z,11.90
2023-08-08T00:29:25.206Z,11.90
2023-08-08T00:32:55.061Z,12.00
2023-08-08T00:35:21.889Z,11.90
2023-08-08T00:37:49.063Z,11.90
2023-08-08T00:40:15.846Z,11.90
2023-08-08T00:42:42.707Z,12.00
2023-08-08T00:46:23.241Z,11.90
2023-08-08T00:48:50.419Z,11.90
2023-08-08T00:51:18.366Z,11.80
2023-08-08T00:53:45.601Z,12.00
2023-08-08T00:56:15.258Z,11.90
2023-08-08T00:58:42.012Z,11.90
2023-08-08T01:01:08.890Z,11.90
2023-08-08T01:03:35.762Z,12.00
2023-08-08T01:06:07.421Z,11.90
2023-08-08T01:08:59.287Z,12.00
2023-08-08T01:11:26.833Z,12.00
2023-08-08T01:13:53.854Z,12.00
2023-08-08T01:16:20.738Z,12.00
2023-08-08T01:18:48.271Z,12.10
2023-08-08T01:21:15.987Z,12.10
2023-08-08T01:23:48.090Z,12.10
2023-08-08T01:26:14.872Z,12.20
2023-08-08T01:29:27.551Z,12.20
2023-08-08T01:31:54.412Z,12.20
2023-08-08T01:34:21.360Z,12.30
2023-08-08T01:36:57.572Z,12.30
2023-08-08T01:41:55.629Z,12.30
2023-08-08T01:44:24.252Z,12.30
2023-08-08T01:46:51.105Z,12.30
2023-08-08T01:49:17.858Z,12.30
2023-08-08T01:51:44.656Z,12.30
2023-08-08T01:54:11.478Z,12.40
2023-08-08T01:56:38.252Z,12.40
2023-08-08T01:59:05.166Z,12.40
2023-08-08T02:02:39.513Z,12.40
2023-08-08T02:05:06.840Z,12.40
2023-08-08T02:07:34.248Z,12.40
2023-08-08T02:10:01.149Z,12.40
2023-08-08T02:12:29.895Z,12.40
2023-08-08T02:14:59.565Z,12.40
2023-08-08T02:17:27.114Z,12.40
2023-08-08T02:19:54.043Z,12.40
2023-08-08T02:22:20.912Z,12.40
2023-08-08T02:24:47.676Z,12.50
2023-08-08T02:27:15.375Z,12.50
2023-08-08T02:29:42.205Z,12.50
2023-08-08T02:32:09.176Z,12.50
2023-08-08T02:34:36.020Z,12.50
2023-08-08T02:37:02.836Z,12.50
2023-08-08T02:39:29.634Z,12.50
2023-08-08T02:41:56.617Z,12.50
2023-08-08T02:44:49.724Z,12.50
2023-08-08T02:47:16.666Z,12.50
2023-08-08T02:49:43.420Z,12.50
2023-08-08T02:52:10.219Z,12.60
2023-08-08T02:54:37.045Z,12.60
2023-08-08T02:57:04.201Z,12.60
2023-08-08T02:59:30.960Z,12.60
2023-08-08T03:01:57.972Z,12.60
2023-08-08T03:06:23.216Z,12.60
2023-08-08T03:08:49.966Z,12.60
2023-08-08T03:11:16.770Z,12.60
2023-08-08T03:13:43.600Z,12.60
2023-08-08T03:18:18.911Z,12.60
2023-08-08T03:20:45.821Z,12.60
2023-08-08T03:23:12.630Z,12.60
2023-08-08T03:25:39.413Z,12.60
2023-08-08T03:28:06.340Z,12.60
2023-08-08T03:30:33.092Z,12.60
2023-08-08T03:34:41.908Z,12.60
2023-08-08T03:37:08.687Z,12.60
2023-08-08T03:39:35.529Z,12.70
2023-08-08T03:42:02.700Z,12.60
2023-08-08T03:44:29.722Z,12.70
2023-08-08T03:48:25.582Z,12.70
2023-08-08T03:50:52.337Z,12.70
2023-08-08T03:53:19.245Z,12.70
2023-08-08T03:55:46.027Z,12.70
2023-08-08T03:58:12.808Z,12.70
2023-08-08T04:00:41.450Z,12.70
2023-08-08T04:03:08.297Z,12.70
2023-08-08T04:05:35.057Z,12.70
2023-08-08T04:08:01.899Z,12.70
2023-08-08T04:10:28.629Z,12.70
2023-08-08T04:14:11.721Z,12.70
2023-08-08T04:16:40.038Z,12.70
2023-08-08T04:19:06.948Z,12.70
2023-08-08T04:21:33.748Z,12.70
2023-08-08T04:24:00.691Z,12.70
2023-08-08T04:26:27.550Z,12.60
2023-08-08T04:28:54.469Z,12.70
2023-08-08T04:31:21.320Z,12.70
2023-08-08T04:33:48.115Z,12.60
2023-08-08T04:36:14.930Z,12.60
2023-08-08T04:38:41.674Z,12.60
2023-08-08T04:41:08.467Z,12.70
2023-08-08T04:43:35.250Z,12.70
2023-08-08T04:46:02.173Z,12.70
2023-08-08T04:52:33.817Z,12.90
2023-08-08T04:56:06.796Z,13.00
2023-08-08T04:58:33.573Z,13.10
2023-08-08T05:02:30.452Z,13.30
2023-08-08T05:04:57.251Z,13.30
2023-08-08T05:07:24.042Z,13.50
2023-08-08T05:09:50.786Z,13.60
2023-08-08T05:12:17.544Z,13.70
2023-08-08T05:14:44.278Z,13.70
2023-08-08T05:17:11.012Z,13.70
2023-08-08T05:19:37.779Z,13.80
2023-08-08T05:22:04.782Z,13.80
2023-08-08T05:24:31.615Z,13.90
2023-08-08T05:26:58.386Z,13.90
2023-08-08T05:29:25.216Z,14.00
2023-08-08T05:31:51.991Z,14.00
2023-08-08T05:34:18.795Z,14.00
2023-08-08T05:36:45.748Z,14.10
2023-08-08T05:39:12.483Z,14.20
2023-08-08T05:41:39.305Z,14.30
2023-08-08T05:44:06.136Z,14.40
2023-08-08T05:46:32.982Z,14.40
2023-08-08T05:48:59.800Z,14.60
2023-08-08T05:53:54.032Z,14.70
2023-08-08T05:56:20.819Z,14.80
2023-08-08T05:58:47.626Z,14.80
2023-08-08T06:01:14.491Z,14.80
2023-08-08T06:03:41.397Z,14.70
2023-08-08T06:06:08.260Z,14.70
2023-08-08T06:08:35.150Z,14.70
2023-08-08T06:11:01.902Z,14.80
2023-08-08T06:13:28.634Z,14.90
2023-08-08T06:15:55.468Z,15.50
2023-08-08T06:18:22.261Z,15.60
2023-08-08T06:20:49.087Z,15.90
2023-08-08T06:23:16.405Z,16.20
2023-08-08T06:25:43.358Z,16.70
2023-08-08T06:28:10.376Z,17.30
2023-08-08T06:30:37.157Z,18.10
2023-08-08T06:33:04.437Z,18.50
2023-08-08T06:35:31.312Z,19.00
2023-08-08T06:37:58.122Z,19.30
2023-08-08T06:40:24.985Z,19.60
2023-08-08T06:42:51.814Z,20.10
2023-08-08T06:45:18.594Z,20.20
2023-08-08T06:47:45.468Z,20.60
2023-08-08T06:50:12.365Z,20.80
2023-08-08T06:52:39.262Z,21.10
2023-08-08T06:55:06.481Z,20.90
2023-08-08T06:57:33.932Z,20.80
2023-08-08T07:00:00.710Z,20.30
2023-08-08T07:02:27.558Z,19.80
2023-08-08T07:04:54.354Z,19.50
2023-08-08T07:07:21.112Z,19.10
2023-08-08T07:09:48.835Z,18.90
2023-08-08T07:12:15.674Z,18.80
2023-08-08T07:14:42.646Z,18.70
2023-08-08T07:17:09.389Z,18.60
2023-08-08T07:19:37.427Z,18.60
2023-08-08T07:22:04.301Z,18.50
2023-08-08T07:24:31.193Z,18.40
2023-08-08T07:26:59.395Z,18.30
2023-08-08T07:29:26.373Z,18.30
2023-08-08T07:31:54.165Z,18.40
2023-08-08T07:34:21.173Z,18.70
2023-08-08T07:36:48.248Z,19.10
2023-08-08T07:39:15.106Z,19.40
2023-08-08T07:41:41.968Z,19.40
2023-08-08T07:44:08.763Z,19.30
2023-08-08T07:46:35.577Z,19.20
2023-08-08T07:49:04.637Z,19.00
2023-08-08T07:51:31.613Z,18.80
2023-08-08T07:53:58.667Z,18.50
2023-08-08T07:56:25.463Z,18.40
2023-08-08T07:58:52.265Z,18.20
2023-08-08T08:01:19.742Z,18.20
2023-08-08T08:03:46.722Z,18.30
2023-08-08T08:06:13.592Z,18.70
2023-08-08T08:08:40.387Z,18.90
2023-08-08T08:11:07.173Z,19.10
2023-08-08T08:13:33.977Z,19.30
2023-08-08T08:16:00.857Z,19.40
2023-08-08T08:18:28.380Z,19.80
2023-08-08T08:20:55.160Z,20.20
2023-08-08T08:23:22.023Z,20.60
2023-08-08T08:25:49.814Z,20.80
2023-08-08T08:28:16.666Z,20.70
2023-08-08T08:30:44.287Z,20.60
2023-08-08T08:33:11.438Z,20.60
2023-08-08T08:35:38.940Z,20.60
2023-08-08T08:38:05.766Z,20.60
2023-08-08T08:40:36.615Z,20.60
2023-08-08T08:43:03.878Z,20.80
2023-08-08T08:45:30.890Z,21.30
2023-08-08T08:47:58.774Z,21.90
2023-08-08T08:50:27.571Z,22.70
2023-08-08T08:52:56.579Z,23.20
2023-08-08T08:55:23.487Z,23.80
2023-08-08T08:57:50.811Z,24.10
2023-08-08T09:00:20.074Z,24.20
2023-08-08T09:02:47.471Z,24.10
2023-08-08T09:05:14.277Z,24.00
2023-08-08T09:07:42.362Z,23.80
2023-08-08T09:10:09.207Z,23.60
2023-08-08T09:12:37.465Z,23.40
2023-08-08T09:15:05.363Z,23.40
2023-08-08T09:17:46.064Z,23.60
2023-08-08T09:20:14.925Z,23.90
2023-08-08T09:22:41.734Z,24.00
2023-08-08T09:25:09.153Z,24.30
2023-08-08T09:27:36.635Z,24.40
2023-08-08T09:30:03.964Z,24.50
2023-08-08T09:32:33.923Z,24.50
2023-08-08T09:35:00.949Z,24.40
2023-08-08T09:37:29.047Z,24.30
2023-08-08T09:39:59.818Z,23.90
2023-08-08T09:42:30.569Z,23.50
2023-08-08T09:45:00.435Z,23.30
2023-08-08T09:47:32.034Z,23.20
2023-08-08T09:50:02.311Z,23.30
2023-08-08T09:52:29.472Z,23.30
2023-08-08T09:54:56.471Z,23.30
2023-08-08T09:57:23.997Z,23.40
2023-08-08T09:59:50.987Z,23.50
2023-08-08T10:02:18.019Z,23.40
2023-08-08T10:04:48.948Z,23.30
2023-08-08T10:07:16.234Z,23.20
2023-08-08T10:09:43.182Z,23.10
2023-08-08T10:12:09.978Z,23.10
2023-08-08T10:14:38.854Z,23.10
2023-08-08T10:17:06.149Z,23.20
2023-08-08T10:19:33.289Z,23.20
2023-08-08T10:22:01.609Z,23.30
2023-08-08T10:24:34.488Z,23.60
2023-08-08T10:27:03.146Z,23.80
2023-08-08T10:29:31.511Z,24.00
2023-08-08T10:32:04.584Z,24.20
2023-08-08T10:34:44.966Z,24.10
2023-08-08T10:37:13.212Z,24.00
2023-08-08T10:39:56.025Z,23.90
2023-08-08T10:42:24.055Z,23.80
2023-08-08T10:44:55.486Z,23.90
2023-08-08T10:47:26.242Z,23.90
2023-08-08T10:50:00.759Z,24.00
2023-08-08T10:52:27.641Z,24.10
2023-08-08T10:54:57.090Z,24.20
2023-08-08T10:57:27.520Z,24.20
2023-08-08T10:59:55.445Z,24.40
2023-08-08T11:02:23.116Z,24.50
2023-08-08T11:04:51.575Z,24.60
2023-08-08T11:07:18.539Z,24.80
2023-08-08T11:09:45.520Z,24.60
2023-08-08T11:12:16.280Z,24.60
2023-08-08T11:14:43.112Z,24.40
2023-08-08T11:17:09.924Z,24.30
2023-08-08T11:19:41.299Z,24.20
2023-08-08T11:22:14.413Z,24.00
2023-08-08T11:24:41.260Z,23.90
2023-08-08T11:27:08.100Z,23.90
2023-08-08T11:29:35.199Z,23.80
2023-08-08T11:32:03.559Z,23.70
2023-08-08T11:34:34.134Z,23.70
2023-08-08T11:37:01.592Z,23.60
2023-08-08T11:39:28.893Z,23.70
2023-08-08T11:41:56.944Z,23.70
2023-08-08T11:44:24.607Z,23.80
2023-08-08T11:46:51.544Z,23.90
2023-08-08T11:49:18.402Z,24.00
2023-08-08T11:51:46.689Z,24.30
2023-08-08T11:54:14.165Z,24.70
2023-08-08T11:56:40.986Z,25.00
2023-08-08T11:59:08.432Z,25.20
2023-08-08T12:01:35.621Z,25.10
2023-08-08T12:04:07.512Z,25.00
2023-08-08T12:06:34.846Z,24.90
2023-08-08T12:09:02.974Z,25.00
2023-08-08T12:14:01.735Z,25.40
2023-08-08T12:16:32.218Z,25.60
2023-08-08T12:19:03.353Z,25.70
2023-08-08T12:21:30.152Z,25.50
2023-08-08T12:23:56.937Z,25.30
2023-08-08T12:26:24.024Z,25.20
2023-08-08T12:28:52.105Z,25.30
2023-08-08T12:31:18.941Z,25.20
2023-08-08T12:33:46.793Z,25.10
2023-08-08T12:36:14.134Z,25.10
2023-08-08T12:38:41.594Z,25.20
2023-08-08T12:41:08.473Z,25.30
2023-08-08T12:43:35.493Z,25.50
2023-08-08T12:46:02.297Z,25.70
2023-08-08T12:48:29.089Z,25.80
2023-08-08T12:50:55.829Z,25.90
2023-08-08T12:53:22.655Z,25.70
2023-08-08T12:55:49.400Z,25.60
2023-08-08T12:58:16.257Z,25.60
2023-08-08T13:00:43.024Z,25.60
2023-08-08T13:03:11.410Z,25.80
2023-08-08T13:05:38.259Z,25.90
2023-08-08T13:08:05.317Z,26.00
2023-08-08T13:10:32.074Z,25.90
2023-08-08T13:12:59.004Z,25.90
2023-08-08T13:15:26.112Z,26.00
2023-08-08T13:17:52.983Z,26.00
2023-08-08T13:20:19.926Z,26.00
2023-08-08T13:22:46.790Z,26.00
2023-08-08T13:25:13.723Z,26.00
2023-08-08T13:27:40.550Z,26.00
2023-08-08T13:30:08.365Z,25.90
2023-08-08T13:32:35.200Z,25.90
2023-08-08T13:35:02.123Z,25.60
2023-08-08T13:37:28.992Z,25.40
2023-08-08T13:39:55.784Z,25.30
2023-08-08T13:42:22.546Z,25.20
2023-08-08T13:44:49.329Z,25.00
2023-08-08T13:47:16.139Z,25.00
2023-08-08T13:49:42.942Z,25.00
2023-08-08T13:52:10.120Z,25.10
2023-08-08T13:54:36.925Z,25.30
2023-08-08T13:57:03.833Z,25.30
2023-08-08T13:59:30.910Z,25.40
2023-08-08T14:01:57.789Z,25.30
2023-08-08T14:04:24.891Z,25.30
2023-08-08T14:06:51.879Z,25.20
2023-08-08T14:09:19.949Z,25.30
2023-08-08T14:11:46.947Z,25.40
2023-08-08T14:14:13.789Z,25.40
2023-08-08T14:16:40.678Z,25.50
2023-08-08T14:19:07.502Z,25.50
2023-08-08T14:21:34.359Z,25.50
2023-08-08T14:24:01.512Z,25.60
2023-08-08T14:26:28.319Z,25.60
2023-08-08T14:28:55.055Z,25.60
2023-08-08T14:31:21.861Z,25.70
2023-08-08T14:33:48.639Z,25.80
2023-08-08T14:36:15.537Z,26.00
2023-08-08T14:38:42.296Z,26.00
2023-08-08T14:41:09.146Z,26.00
2023-08-08T14:43:35.916Z,26.00
2023-08-08T14:46:02.792Z,26.10
2023-08-08T14:48:29.584Z,26.10
2023-08-08T14:50:56.375Z,26.00
2023-08-08T14:53:23.156Z,26.00
2023-08-08T14:55:50.071Z,25.80
2023-08-08T14:58:16.956Z,25.60
2023-08-08T15:00:43.849Z,25.40
2023-08-08T15:03:11.411Z,25.30
2023-08-08T15:05:38.317Z,25.10
2023-08-08T15:08:05.178Z,25.00
2023-08-08T15:10:34.364Z,24.80
2023-08-08T15:13:02.622Z,24.70
2023-08-08T15:15:30.917Z,24.60
2023-08-08T15:17:57.960Z,24.50
2023-08-08T15:20:25.004Z,24.40
2023-08-08T15:22:51.771Z,24.30
2023-08-08T15:25:18.592Z,24.20
2023-08-08T15:27:45.542Z,24.20
2023-08-08T15:30:12.514Z,24.20
2023-08-08T15:32:39.527Z,24.20
2023-08-08T15:35:06.817Z,24.10
2023-08-08T15:37:33.743Z,24.10
2023-08-08T15:40:00.732Z,24.10
2023-08-08T15:42:27.499Z,24.20
2023-08-08T15:44:54.337Z,24.20
2023-08-08T15:47:21.135Z,24.10
2023-08-08T15:49:49.010Z,24.10
2023-08-08T15:52:15.936Z,24.10
2023-08-08T15:54:42.807Z,24.00
2023-08-08T15:57:09.939Z,24.00
2023-08-08T15:59:38.479Z,24.00
2023-08-08T16:02:05.411Z,24.00
2023-08-08T16:04:32.253Z,24.10
2023-08-08T16:06:59.411Z,24.10
2023-08-08T16:09:26.724Z,24.00
2023-08-08T16:11:53.623Z,24.00
2023-08-08T16:14:21.052Z,23.60
2023-08-08T16:16:47.958Z,23.70
2023-08-08T16:19:15.008Z,23.60
2023-08-08T16:21:42.073Z,23.50
2023-08-08T16:24:09.816Z,23.50
2023-08-08T16:26:36.614Z,23.40
2023-08-08T16:29:03.494Z,23.40
2023-08-08T16:31:31.111Z,23.30
2023-08-08T16:33:58.758Z,23.30
2023-08-08T16:36:25.564Z,23.30
2023-08-08T16:38:53.622Z,23.30
2023-08-08T16:41:22.412Z,23.20
2023-08-08T16:43:55.292Z,23.10
2023-08-08T16:46:22.075Z,23.00
2023-08-08T16:48:48.895Z,23.00
2023-08-08T16:51:15.697Z,22.90
2023-08-08T16:53:42.648Z,22.80
2023-08-08T16:56:09.393Z,22.70
2023-08-08T16:58:36.200Z,22.60
2023-08-08T17:01:03.141Z,22.60
2023-08-08T17:03:30.020Z,22.50
2023-08-08T17:05:56.915Z,22.50
2023-08-08T17:08:23.734Z,22.40
2023-08-08T17:10:50.628Z,22.30
2023-08-08T17:13:17.429Z,22.20
2023-08-08T17:15:46.098Z,22.00
2023-08-08T17:18:14.160Z,22.00
2023-08-08T17:20:41.459Z,21.90
2023-08-08T17:23:08.662Z,21.70
2023-08-08T17:25:35.435Z,21.60
2023-08-08T17:28:03.729Z,21.60
2023-08-08T17:30:31.084Z,21.50
2023-08-08T17:32:58.012Z,21.40
2023-08-08T17:35:27.297Z,21.40
2023-08-08T17:37:54.108Z,21.40
2023-08-08T17:40:21.030Z,21.30
2023-08-08T17:42:47.785Z,21.20
2023-08-08T17:45:14.611Z,21.20
2023-08-08T17:47:41.515Z,21.10
2023-08-08T17:50:08.921Z,21.10
2023-08-08T17:52:35.697Z,21.00
2023-08-08T17:55:02.520Z,21.00
2023-08-08T17:57:29.278Z,20.90
2023-08-08T17:59:56.068Z,20.90
2023-08-08T18:02:23.998Z,20.80
2023-08-08T18:04:51.037Z,20.70
2023-08-08T18:07:17.809Z,20.70
2023-08-08T18:09:48.111Z,20.70
2023-08-08T18:12:16.523Z,20.60
2023-08-08T18:14:43.260Z,20.60
2023-08-08T18:17:10.030Z,20.50
2023-08-08T18:19:36.825Z,20.40
2023-08-08T18:22:04.534Z,20.40
2023-08-08T18:24:31.614Z,20.30
2023-08-08T18:26:58.371Z,20.30
2023-08-08T18:29:25.115Z,20.20
2023-08-08T18:31:51.928Z,20.20
2023-08-08T18:34:18.701Z,20.10
2023-08-08T18:36:45.451Z,20.10
2023-08-08T18:39:12.199Z,20.10
2023-08-08T18:41:38.993Z,20.00
2023-08-08T18:44:07.251Z,19.90
2023-08-08T18:46:37.169Z,19.90
2023-08-08T18:49:04.029Z,19.80
2023-08-08T18:51:30.773Z,19.80
2023-08-08T18:53:57.539Z,19.80
2023-08-08T18:56:24.789Z,19.70
2023-08-08T18:58:51.515Z,19.60
2023-08-08T19:01:18.288Z,19.60
2023-08-08T19:03:45.305Z,19.60
2023-08-08T19:06:12.226Z,19.50
2023-08-08T19:08:39.064Z,19.50
2023-08-08T19:11:06.360Z,19.40
2023-08-08T19:13:33.126Z,19.40
2023-08-08T19:15:59.917Z,19.30
2023-08-08T19:18:26.732Z,19.30
2023-08-08T19:20:54.582Z,19.30
2023-08-08T19:23:21.408Z,19.30
2023-08-08T19:25:48.175Z,19.30
2023-08-08T19:28:15.012Z,19.30
2023-08-08T19:30:41.776Z,19.20
2023-08-08T19:33:08.928Z,19.20
2023-08-08T19:35:36.510Z,19.20
2023-08-08T19:38:03.490Z,19.10
2023-08-08T19:40:32.420Z,19.10
2023-08-08T19:42:59.185Z,19.10
2023-08-08T19:45:25.972Z,19.10
2023-08-08T19:47:52.853Z,19.00
2023-08-08T19:50:19.621Z,19.00
2023-08-08T19:52:48.186Z,19.00
2023-08-08T19:55:14.968Z,18.90
2023-08-08T19:57:41.726Z,18.90
2023-08-08T20:00:09.194Z,18.80
2023-08-08T20:02:36.059Z,18.80
2023-08-08T20:05:02.886Z,18.80
2023-08-08T20:07:29.663Z,18.80
2023-08-08T20:09:56.484Z,18.70
2023-08-08T20:12:23.513Z,18.70
2023-08-08T20:14:50.553Z,18.70
2023-08-08T20:17:17.320Z,18.60
2023-08-08T20:19:44.105Z,18.60
2023-08-08T20:22:10.878Z,18.60
2023-08-08T20:24:37.645Z,18.50
2023-08-08T20:27:04.858Z,18.50
2023-08-08T20:29:32.057Z,18.50
2023-08-08T20:31:58.826Z,18.40
2023-08-08T20:34:29.294Z,18.40
2023-08-08T20:36:56.088Z,18.40
2023-08-08T20:39:22.832Z,18.40
2023-08-08T20:41:49.617Z,18.40
2023-08-08T20:44:16.457Z,18.40
2023-08-08T20:46:43.236Z,18.40
2023-08-08T20:49:09.980Z,18.20
2023-08-08T20:51:36.767Z,18.30
2023-08-08T20:54:03.644Z,18.30
2023-08-08T20:56:30.442Z,18.30
2023-08-08T20:58:57.200Z,18.30
2023-08-08T21:01:24.024Z,18.20
2023-08-08T21:03:50.858Z,18.20
2023-08-08T21:06:17.636Z,18.20
2023-08-08T21:08:44.451Z,18.30
2023-08-08T21:11:11.208Z,18.30
2023-08-08T21:13:37.941Z,18.20
2023-08-08T21:16:04.658Z,18.20
2023-08-08T21:18:31.486Z,18.20
2023-08-08T21:20:58.228Z,18.20
2023-08-08T21:23:24.975Z,18.20
2023-08-08T21:25:51.797Z,18.10
2023-08-08T21:28:18.573Z,18.10
2023-08-08T21:30:45.588Z,18.10
2023-08-08T21:33:12.381Z,18.00
2023-08-08T21:35:39.097Z,18.00
2023-08-08T21:38:11.243Z,18.00
2023-08-08T21:40:38.834Z,17.90
2023-08-08T21:43:05.623Z,17.80
2023-08-08T21:45:32.557Z,17.80
2023-08-08T21:48:00.324Z,17.70
2023-08-08T21:50:27.176Z,17.70
2023-08-08T21:52:53.954Z,17.60
2023-08-08T21:55:20.985Z,17.60
2023-08-08T21:57:47.872Z,17.50
2023-08-08T22:00:16.051Z,17.40
2023-08-08T22:02:43.111Z,17.40
2023-08-08T22:05:10.228Z,17.40
2023-08-08T22:07:37.118Z,17.40
2023-08-08T22:10:04.868Z,17.40
2023-08-08T22:12:31.634Z,17.40
2023-08-08T22:14:58.535Z,17.30
2023-08-08T22:17:25.362Z,17.30
2023-08-08T22:19:52.805Z,17.30
2023-08-08T22:22:19.594Z,17.30
2023-08-08T22:24:46.363Z,17.40
2023-08-08T22:27:13.178Z,17.40
2023-08-08T22:29:39.963Z,17.40
2023-08-08T22:32:06.810Z,17.40
2023-08-08T22:34:33.554Z,17.40
2023-08-08T22:37:00.415Z,17.40
2023-08-08T22:39:27.421Z,17.40
2023-08-08T22:41:54.177Z,17.40
2023-08-08T22:44:20.954Z,17.40
2023-08-08T22:46:47.700Z,17.40
2023-08-08T22:49:14.495Z,17.40
2023-08-08T22:51:41.236Z,17.40
2023-08-08T22:54:08.024Z,17.30
2023-08-08T22:56:35.083Z,17.30
2023-08-08T22:59:01.856Z,17.30
2023-08-08T23:01:28.683Z,17.30
2023-08-08T23:03:55.543Z,17.30
2023-08-08T23:06:22.338Z,17.30
2023-08-08T23:08:50.588Z,17.30
2023-08-08T23:11:17.344Z,17.30
2023-08-08T23:13:44.077Z,17.30
2023-08-08T23:16:10.842Z,17.20
2023-08-08T23:18:37.636Z,17.20
2023-08-08T23:21:04.372Z,17.10
2023-08-08T23:23:31.159Z,17.10
2023-08-08T23:25:57.903Z,17.10
2023-08-08T23:28:24.656Z,17.10
2023-08-08T23:30:51.602Z,17.00
2023-08-08T23:33:18.468Z,17.00
2023-08-08T23:35:45.534Z,17.00
2023-08-08T23:38:12.404Z,17.00
2023-08-08T23:40:39.171Z,17.00
2023-08-08T23:43:05.940Z,17.00
2023-08-08T23:45:32.752Z,16.90
2023-08-08T23:48:01.328Z,16.90
2023-08-08T23:50:28.194Z,16.90
2023-08-08T23:52:55.379Z,16.90
2023-08-08T23:55:22.259Z,16.90
2023-08-08T23:57:49.031Z,16.90
